Time;durP1;ratioP1;P1;durP2;ratioP2;P2;SDS_P1;SDS_P2;PMS_P1;PMS_P2;Temp;Humidity;BMP_temperature;BMP_pressure;BME280_temperature;BME280_humidity;BME280_pressure;Samples;Min_cycle;Max_cycle;Signal;HPM_P1;HPM_P2
2024/01/17 00:00:00;;;;;;;12.65;6.97;;;-0.10;99.90;;;;;;4879313;29;20044;-79
2024/01/17 00:02:26;;;;;;;14.95;7.47;;;-0.10;99.90;;;;;;4870216;29;20074;-79
2024/01/17 00:04:54;;;;;;;17.10;7.28;;;-0.10;99.90;;;;;;4889443;29;20053;-79
2024/01/17 00:07:20;;;;;;;14.73;8.50;;;-0.10;99.90;;;;;;4879881;29;20485;-79
2024/01/17 00:09:49;;;;;;;14.05;7.78;;;-0.10;99.90;;;;;;4853354;29;20073;-78
2024/01/17 00:12:15;;;;;;;16.38;7.93;;;-0.10;99.90;;;;;;4847271;29;20045;-78
2024/01/17 00:14:41;;;;;;;13.02;7.30;;;-0.10;99.90;;;;;;4847913;29;20390;-78
2024/01/17 00:17:07;;;;;;;14.93;8.18;;;-0.10;99.90;;;;;;4872114;29;20067;-79
2024/01/17 00:19:32;;;;;;;13.70;6.97;;;-0.10;99.90;;;;;;4858237;29;20057;-78
2024/01/17 00:21:58;;;;;;;14.35;7.07;;;-0.10;99.90;;;;;;4898486;29;20052;-78
2024/01/17 00:24:24;;;;;;;13.50;7.82;;;-0.10;99.90;;;;;;4853423;29;20064;-78
2024/01/17 00:26:50;;;;;;;13.32;7.63;;;-0.10;99.90;;;;;;4863081;29;20263;-78
2024/01/17 00:29:15;;;;;;;19.02;7.85;;;-0.10;99.90;;;;;;4869760;29;20395;-78
2024/01/17 00:31:42;;;;;;;12.35;7.15;;;-0.10;99.90;;;;;;4881609;29;20064;-79
2024/01/17 00:34:08;;;;;;;16.60;7.63;;;-0.10;99.90;;;;;;4873976;29;20048;-78
2024/01/17 00:36:33;;;;;;;16.48;7.60;;;-0.10;99.90;;;;;;4880774;29;20120;-79
2024/01/17 00:38:59;;;;;;;14.30;7.60;;;-0.10;99.90;;;;;;4889564;29;20072;-78
2024/01/17 00:41:25;;;;;;;16.85;7.78;;;-0.10;99.90;;;;;;4856811;29;20087;-78
2024/01/17 00:43:50;;;;;;;14.32;7.78;;;-0.10;99.90;;;;;;4854240;29;20101;-79
2024/01/17 00:46:17;;;;;;;13.95;8.68;;;-0.10;99.90;;;;;;4879185;29;20049;-78
2024/01/17 00:48:43;;;;;;;13.73;7.75;;;-0.10;99.90;;;;;;4872612;29;20049;-78
2024/01/17 00:51:08;;;;;;;14.50;7.70;;;-0.10;99.90;;;;;;4877261;29;20052;-78
2024/01/17 00:53:34;;;;;;;13.93;8.05;;;-0.10;99.90;;;;;;4892521;29;20032;-78
2024/01/17 00:56:00;;;;;;;16.45;8.60;;;-0.10;99.90;;;;;;4864219;29;20164;-78
2024/01/17 00:58:25;;;;;;;17.15;8.43;;;-0.10;99.90;;;;;;4883095;29;20040;-78
2024/01/17 01:00:51;;;;;;;17.80;8.82;;;-0.10;99.90;;;;;;4863959;29;20144;-78
2024/01/17 01:03:16;;;;;;;16.27;9.15;;;-0.10;99.90;;;;;;4871084;29;20132;-78
2024/01/17 01:05:42;;;;;;;16.00;8.88;;;-0.10;99.90;;;;;;4897149;29;20978;-78
2024/01/17 01:08:08;;;;;;;18.60;8.90;;;-0.10;99.90;;;;;;4863343;29;20054;-79
2024/01/17 01:10:33;;;;;;;19.48;9.50;;;-0.10;99.90;;;;;;4859089;29;20049;-78
2024/01/17 01:12:59;;;;;;;15.85;8.60;;;-0.10;99.90;;;;;;4880837;29;20120;-78
2024/01/17 01:15:25;;;;;;;17.63;9.90;;;-0.10;99.90;;;;;;4887586;29;20046;-78
2024/01/17 01:17:50;;;;;;;16.80;8.63;;;0.00;99.90;;;;;;4859232;29;20058;-78
2024/01/17 01:20:16;;;;;;;18.45;9.88;;;0.00;99.90;;;;;;4884699;29;20410;-78
2024/01/17 01:22:42;;;;;;;17.80;9.38;;;-0.10;99.90;;;;;;4874315;29;20033;-78
2024/01/17 01:25:08;;;;;;;16.40;8.80;;;-0.10;99.90;;;;;;4891968;29;20048;-78
2024/01/17 01:27:34;;;;;;;18.20;10.40;;;0.00;99.90;;;;;;4858357;29;20552;-78
2024/01/17 01:30:00;;;;;;;16.75;9.55;;;0.00;99.90;;;;;;4876359;29;20038;-78
2024/01/17 01:32:26;;;;;;;18.92;9.70;;;0.00;99.90;;;;;;4888085;29;20057;-78
2024/01/17 01:34:51;;;;;;;19.55;10.02;;;-0.10;99.90;;;;;;4865421;29;20076;-79
2024/01/17 01:37:17;;;;;;;18.38;9.40;;;-0.10;99.90;;;;;;4879954;29;20036;-78
2024/01/17 01:39:43;;;;;;;18.17;10.52;;;-0.10;99.90;;;;;;4878923;29;20562;-78
2024/01/17 01:42:08;;;;;;;17.98;10.73;;;-0.10;99.90;;;;;;4851676;29;20647;-78
2024/01/17 01:44:34;;;;;;;21.75;10.32;;;-0.10;99.90;;;;;;4885193;29;20607;-78
2024/01/17 01:47:00;;;;;;;19.15;10.50;;;-0.10;99.90;;;;;;4884911;29;20381;-78
2024/01/17 01:49:26;;;;;;;18.02;9.45;;;-0.20;99.90;;;;;;4856200;29;20165;-78
2024/01/17 01:51:53;;;;;;;15.18;9.95;;;-0.20;99.90;;;;;;4874826;29;20140;-79
2024/01/17 01:54:20;;;;;;;;;;;-0.20;99.90;;;;;;4877235;29;20072;-79
2024/01/17 01:56:47;;;;;;;17.50;10.65;;;-0.20;99.90;;;;;;4877757;29;19932;-79
2024/01/17 01:59:19;;;;;;;18.08;9.65;;;-0.20;99.90;;;;;;4862666;29;20038;-79
2024/01/17 02:01:46;;;;;;;18.98;11.02;;;-0.30;99.90;;;;;;4870367;29;20147;-79
2024/01/17 02:04:12;;;;;;;15.32;9.38;;;-0.30;99.90;;;;;;4870176;29;20128;-79
2024/01/17 02:06:39;;;;;;;14.63;9.75;;;-0.30;99.90;;;;;;4874179;29;20119;-79
2024/01/17 02:09:05;;;;;;;17.15;9.77;;;-0.30;99.90;;;;;;4857933;29;20045;-79
2024/01/17 02:11:31;;;;;;;20.00;10.20;;;-0.30;99.90;;;;;;4874345;29;20305;-79
2024/01/17 02:13:59;;;;;;;19.00;9.93;;;-0.30;99.90;;;;;;4855875;29;20077;-79
2024/01/17 02:16:26;;;;;;;18.67;10.02;;;-0.30;99.90;;;;;;4850490;29;21385;-78
2024/01/17 02:18:52;;;;;;;20.13;10.45;;;-0.30;99.90;;;;;;4853802;29;20492;-79
2024/01/17 02:21:17;;;;;;;19.55;11.20;;;-0.30;99.90;;;;;;4858841;29;20033;-79
2024/01/17 02:23:43;;;;;;;17.45;9.43;;;-0.30;99.90;;;;;;4875937;29;20063;-79
2024/01/17 02:26:09;;;;;;;21.00;11.15;;;-0.30;99.90;;;;;;4862085;29;20151;-79
2024/01/17 02:28:35;;;;;;;17.30;9.98;;;-0.30;99.90;;;;;;4863622;29;20055;-79
2024/01/17 02:31:01;;;;;;;15.80;9.40;;;-0.30;99.90;;;;;;4874632;29;20041;-79
2024/01/17 02:33:28;;;;;;;20.10;9.30;;;-0.30;99.90;;;;;;4888265;29;20505;-79
2024/01/17 02:35:53;;;;;;;20.85;10.35;;;-0.40;99.90;;;;;;4873447;29;20583;-78
2024/01/17 02:38:19;;;;;;;16.08;9.63;;;-0.30;99.90;;;;;;4876256;29;20120;-79
2024/01/17 02:40:45;;;;;;;17.23;10.10;;;-0.30;99.90;;;;;;4861010;29;20058;-78
2024/01/17 02:43:10;;;;;;;15.13;9.70;;;-0.30;99.90;;;;;;4855605;29;20048;-79
2024/01/17 02:45:37;;;;;;;19.97;10.77;;;-0.30;99.90;;;;;;4862389;29;20084;-78
2024/01/17 02:48:03;;;;;;;16.58;9.68;;;-0.40;99.90;;;;;;4863148;29;20349;-78
2024/01/17 02:50:29;;;;;;;16.88;9.63;;;-0.30;99.90;;;;;;4866181;29;20135;-79
2024/01/17 02:52:55;;;;;;;17.13;9.48;;;-0.40;99.90;;;;;;4881182;29;20070;-79
2024/01/17 02:55:24;;;;;;;16.88;9.50;;;-0.40;99.90;;;;;;4872808;29;20559;-78
2024/01/17 02:57:53;;;;;;;16.67;10.40;;;-0.30;99.90;;;;;;4881478;29;20056;-78
2024/01/17 03:00:19;;;;;;;18.52;8.93;;;-0.40;99.90;;;;;;4868543;29;20052;-78
2024/01/17 03:02:45;;;;;;;16.70;9.02;;;-0.30;99.90;;;;;;4860653;29;20052;-78
2024/01/17 03:05:11;;;;;;;16.17;8.73;;;-0.40;99.90;;;;;;4860351;29;20041;-79
2024/01/17 03:07:37;;;;;;;15.13;9.13;;;-0.30;99.90;;;;;;4862598;29;20056;-78
2024/01/17 03:10:03;;;;;;;22.48;9.85;;;-0.30;99.90;;;;;;4871014;29;20950;-79
2024/01/17 03:12:29;;;;;;;15.73;9.60;;;-0.30;99.90;;;;;;4858101;29;20592;-78
2024/01/17 03:14:54;;;;;;;17.90;8.80;;;-0.40;99.90;;;;;;4881109;29;20131;-79
2024/01/17 03:17:20;;;;;;;15.18;9.10;;;-0.30;99.90;;;;;;4872462;29;20058;-78
2024/01/17 03:19:47;;;;;;;16.73;8.73;;;-0.40;99.90;;;;;;4890821;29;20071;-79
2024/01/17 03:22:15;;;;;;;13.65;8.68;;;-0.40;99.90;;;;;;4871569;29;20037;-78
2024/01/17 03:24:41;;;;;;;14.77;9.07;;;-0.40;99.90;;;;;;4852995;29;20393;-78
2024/01/17 03:27:06;;;;;;;15.32;8.73;;;-0.40;99.90;;;;;;4857683;29;20057;-79
2024/01/17 03:29:32;;;;;;;13.95;8.25;;;-0.50;99.90;;;;;;4870953;29;20056;-79
2024/01/17 03:31:58;;;;;;;14.60;8.50;;;-0.40;99.90;;;;;;4880264;29;20052;-79
2024/01/17 03:34:24;;;;;;;18.77;9.02;;;-0.50;99.90;;;;;;4852171;29;20072;-78
2024/01/17 03:36:49;;;;;;;16.27;9.27;;;-0.50;99.90;;;;;;4885661;29;20048;-78
2024/01/17 03:39:15;;;;;;;16.90;9.02;;;-0.50;99.90;;;;;;4860730;29;20824;-78
2024/01/17 03:41:40;;;;;;;17.67;9.32;;;-0.50;99.90;;;;;;4867343;29;20049;-78
2024/01/17 03:44:06;;;;;;;14.45;8.40;;;-0.60;99.90;;;;;;4853132;29;20053;-79
2024/01/17 03:46:32;;;;;;;12.77;7.85;;;-0.60;99.90;;;;;;4878246;29;20044;-78
2024/01/17 03:48:57;;;;;;;15.60;8.93;;;-0.60;99.90;;;;;;4876001;29;20047;-78
2024/01/17 03:51:23;;;;;;;20.50;9.20;;;-0.60;99.90;;;;;;4854654;29;20052;-78
2024/01/17 03:53:49;;;;;;;15.38;8.43;;;-0.60;99.90;;;;;;4877213;29;20157;-78
2024/01/17 03:56:15;;;;;;;14.50;8.43;;;-0.70;99.90;;;;;;4874907;29;20332;-78
2024/01/17 03:58:44;;;;;;;13.75;8.57;;;-0.70;99.90;;;;;;4871207;29;20040;-78
2024/01/17 04:01:13;;;;;;;16.08;8.88;;;-0.70;99.90;;;;;;4860689;29;20103;-78
2024/01/17 04:03:43;;;;;;;14.88;8.50;;;-0.70;99.90;;;;;;4871011;29;20044;-78
2024/01/17 04:06:09;;;;;;;14.00;8.23;;;-0.70;99.90;;;;;;4869549;29;20037;-78
2024/01/17 04:08:35;;;;;;;17.02;8.27;;;-0.70;99.90;;;;;;4867297;29;20105;-78
2024/01/17 04:11:01;;;;;;;14.70;8.52;;;-0.80;99.90;;;;;;4854567;29;20527;-78
2024/01/17 04:13:26;;;;;;;14.82;9.27;;;-0.70;99.90;;;;;;4874228;29;20055;-78
2024/01/17 04:15:52;;;;;;;16.90;8.88;;;-0.70;99.90;;;;;;4858427;29;20048;-79
2024/01/17 04:18:17;;;;;;;14.00;9.15;;;-0.70;99.90;;;;;;4890340;29;20064;-78
2024/01/17 04:20:43;;;;;;;13.93;8.27;;;-0.70;99.90;;;;;;4860568;29;20062;-78
2024/01/17 04:23:09;;;;;;;15.07;8.75;;;-0.70;99.90;;;;;;4878896;29;20062;-78
2024/01/17 04:25:35;;;;;;;19.77;9.85;;;-0.70;99.90;;;;;;4888290;29;20079;-78
2024/01/17 04:28:06;;;;;;;17.55;8.25;;;-0.70;99.90;;;;;;4881366;29;20445;-78
2024/01/17 04:30:31;;;;;;;16.60;8.88;;;-0.70;99.90;;;;;;4870845;29;20136;-79
2024/01/17 04:32:57;;;;;;;16.58;8.50;;;-0.70;99.90;;;;;;4879016;29;20520;-78
2024/01/17 04:35:23;;;;;;;17.17;9.02;;;-0.70;99.90;;;;;;4883737;29;20048;-78
2024/01/17 04:37:48;;;;;;;14.65;8.63;;;-0.70;99.90;;;;;;4880186;29;20957;-78
2024/01/17 04:40:15;;;;;;;14.25;8.30;;;-0.70;99.90;;;;;;4883769;29;20505;-79
2024/01/17 04:42:41;;;;;;;14.93;8.52;;;-0.70;99.90;;;;;;4865001;29;20101;-80
2024/01/17 04:45:07;;;;;;;17.00;8.70;;;-0.70;99.90;;;;;;4858232;29;20049;-79
2024/01/17 04:47:33;;;;;;;15.37;8.83;;;-0.70;99.90;;;;;;4876045;29;20039;-79
2024/01/17 04:49:59;;;;;;;14.73;8.75;;;-0.60;99.90;;;;;;4859755;29;20300;-80
2024/01/17 04:52:24;;;;;;;13.88;7.68;;;-0.70;99.90;;;;;;4882416;29;20392;-81
2024/01/17 04:54:50;;;;;;;15.90;8.38;;;-0.60;99.90;;;;;;4876710;29;20077;-80
2024/01/17 04:57:16;;;;;;;13.45;7.95;;;-0.60;99.90;;;;;;4864581;29;20045;-80
2024/01/17 04:59:42;;;;;;;12.85;7.60;;;-0.60;99.90;;;;;;4859725;29;20088;-80
2024/01/17 05:02:08;;;;;;;13.77;8.80;;;-0.60;99.90;;;;;;4889618;29;20431;-80
2024/01/17 05:04:34;;;;;;;15.05;7.53;;;-0.60;99.90;;;;;;4902346;29;20060;-80
2024/01/17 05:07:00;;;;;;;17.60;8.57;;;-0.60;99.90;;;;;;4865397;29;20049;-80
2024/01/17 05:09:26;;;;;;;12.70;7.20;;;-0.60;99.90;;;;;;4875410;29;20096;-80
2024/01/17 05:11:52;;;;;;;13.43;7.80;;;-0.60;99.90;;;;;;4889678;29;20057;-80
2024/01/17 05:14:18;;;;;;;17.58;7.55;;;-0.70;99.90;;;;;;4866079;29;20119;-80
2024/01/17 05:16:43;;;;;;;15.90;8.25;;;-0.70;99.90;;;;;;4861320;29;20169;-80
2024/01/17 05:19:09;;;;;;;19.27;8.30;;;-0.70;99.90;;;;;;4875889;29;20140;-80
2024/01/17 05:21:34;;;;;;;14.65;7.60;;;-0.70;99.90;;;;;;4887454;29;20069;-80
2024/01/17 05:24:00;;;;;;;17.45;7.97;;;-0.70;99.90;;;;;;4897155;29;20045;-80
2024/01/17 05:26:26;;;;;;;11.60;7.07;;;-0.70;99.90;;;;;;4860243;29;20164;-80
2024/01/17 05:28:51;;;;;;;15.63;7.78;;;-0.70;99.90;;;;;;4857346;29;20782;-80
2024/01/17 05:31:17;;;;;;;14.20;8.07;;;-0.70;99.90;;;;;;4861998;29;20052;-79
2024/01/17 05:33:44;;;;;;;15.57;8.65;;;-0.60;99.90;;;;;;4871964;29;20698;-80
2024/01/17 05:36:10;;;;;;;15.60;9.10;;;-0.60;99.90;;;;;;4872762;29;20045;-79
2024/01/17 05:38:35;;;;;;;14.05;7.70;;;-0.70;99.90;;;;;;4850468;29;20407;-79
2024/01/17 05:41:01;;;;;;;11.57;6.60;;;-0.70;99.90;;;;;;4857887;29;20496;-79
2024/01/17 05:43:27;;;;;;;16.80;7.40;;;-0.70;99.90;;;;;;4865522;29;20053;-79
2024/01/17 05:45:57;;;;;;;12.60;8.07;;;-0.70;99.90;;;;;;4869567;29;20115;-80
2024/01/17 05:48:26;;;;;;;16.02;7.75;;;-0.70;99.90;;;;;;4858611;29;20481;-80
2024/01/17 05:50:52;;;;;;;15.63;8.15;;;-0.70;99.90;;;;;;4861728;29;20056;-80
2024/01/17 05:53:17;;;;;;;14.55;7.30;;;-0.70;99.90;;;;;;4851662;29;20049;-79
2024/01/17 05:55:44;;;;;;;12.55;7.65;;;-0.70;99.90;;;;;;4857754;29;20052;-79
2024/01/17 05:58:10;;;;;;;14.57;7.88;;;-0.70;99.90;;;;;;4866656;29;20072;-79
2024/01/17 06:00:37;;;;;;;17.98;7.53;;;-0.70;99.90;;;;;;4876372;29;20093;-79
2024/01/17 06:03:04;;;;;;;12.45;7.63;;;-0.80;99.90;;;;;;4866155;29;20462;-79
2024/01/17 06:05:30;;;;;;;;;;;-0.80;99.90;;;;;;4878746;29;20060;-79
2024/01/17 06:07:56;;;;;;;14.93;7.55;;;-0.80;99.90;;;;;;4864370;29;20004;-80
2024/01/17 06:10:23;;;;;;;18.40;7.43;;;-0.80;99.90;;;;;;4889842;29;20057;-80
2024/01/17 06:12:49;;;;;;;;;;;-0.80;99.90;;;;;;4878703;29;20056;-79
2024/01/17 06:15:17;;;;;;;17.42;8.27;;;-0.80;99.90;;;;;;4859224;29;19924;-79
2024/01/17 06:17:45;;;;;;;13.98;7.50;;;-0.80;99.90;;;;;;4892579;29;20124;-79
2024/01/17 06:20:11;;;;;;;12.82;7.25;;;-0.80;99.90;;;;;;4879063;29;20036;-79
2024/01/17 06:22:37;;;;;;;16.90;7.28;;;-0.80;99.90;;;;;;4869226;29;20198;-79
2024/01/17 06:25:07;;;;;;;15.73;8.07;;;-0.80;99.90;;;;;;4856054;29;20507;-79
2024/01/17 06:27:33;;;;;;;13.23;7.15;;;-0.80;99.90;;;;;;4852802;29;20046;-80
2024/01/17 06:29:58;;;;;;;11.35;6.85;;;-0.80;99.90;;;;;;4867579;29;20049;-79
2024/01/17 06:32:24;;;;;;;13.50;7.43;;;-0.80;99.90;;;;;;4847925;29;20076;-79
2024/01/17 06:34:51;;;;;;;13.45;7.00;;;-0.80;99.90;;;;;;4871686;29;20047;-79
2024/01/17 06:37:16;;;;;;;15.95;6.88;;;-0.80;99.90;;;;;;4894318;29;20526;-79
2024/01/17 06:39:43;;;;;;;12.90;6.75;;;-0.80;99.90;;;;;;4905155;29;20056;-80
2024/01/17 06:42:09;;;;;;;16.10;7.25;;;-0.80;99.90;;;;;;4890484;29;20045;-79
2024/01/17 06:44:35;;;;;;;13.02;7.10;;;-0.80;99.90;;;;;;4856664;29;20416;-80
2024/01/17 06:47:01;;;;;;;16.95;7.28;;;-0.80;99.90;;;;;;4850042;29;20056;-80
2024/01/17 06:49:27;;;;;;;15.02;7.95;;;-0.80;99.90;;;;;;4884675;29;20044;-79
2024/01/17 06:51:52;;;;;;;13.57;7.15;;;-0.80;99.90;;;;;;4853843;29;20072;-75
2024/01/17 06:54:18;;;;;;;13.35;7.35;;;-0.80;99.90;;;;;;4853562;29;20049;-76
2024/01/17 06:56:44;;;;;;;14.73;6.68;;;-0.80;99.90;;;;;;4848894;29;20481;-77
2024/01/17 06:59:10;;;;;;;15.05;6.85;;;-0.80;99.90;;;;;;4851259;29;20136;-76
2024/01/17 07:01:37;;;;;;;14.30;7.32;;;-0.80;99.90;;;;;;4857057;29;20054;-77
2024/01/17 07:04:03;;;;;;;12.88;7.40;;;-0.80;99.90;;;;;;4856636;29;20064;-77
2024/01/17 07:06:29;;;;;;;14.77;7.25;;;-0.80;99.90;;;;;;4851047;29;20520;-76
2024/01/17 07:08:54;;;;;;;11.90;6.72;;;-0.80;99.90;;;;;;4851952;29;20041;-77
2024/01/17 07:11:20;;;;;;;14.38;6.30;;;-0.90;99.90;;;;;;4873430;29;20160;-79
2024/01/17 07:13:46;;;;;;;12.68;6.43;;;-0.90;99.90;;;;;;4858255;29;20053;-76
2024/01/17 07:16:15;;;;;;;13.90;7.10;;;-0.90;99.90;;;;;;4874587;29;20541;-76
2024/01/17 07:18:41;;;;;;;10.65;6.72;;;-0.90;99.90;;;;;;4871229;29;20838;-75
2024/01/17 07:21:07;;;;;;;16.20;7.22;;;-0.90;99.90;;;;;;4857880;29;20081;-77
2024/01/17 07:23:39;;;;;;;12.07;6.40;;;-0.90;99.90;;;;;;4856871;29;20045;-75
2024/01/17 07:26:05;;;;;;;10.63;5.72;;;-0.90;99.90;;;;;;4862970;29;20060;-76
2024/01/17 07:28:31;;;;;;;13.20;6.47;;;-1.00;99.90;;;;;;4862368;29;20148;-75
2024/01/17 07:30:57;;;;;;;14.55;8.15;;;-1.00;99.90;;;;;;4854666;29;20044;-77
2024/01/17 07:33:22;;;;;;;11.95;6.10;;;-1.00;99.90;;;;;;4853720;29;20093;-77
2024/01/17 07:35:48;;;;;;;11.23;6.10;;;-1.00;99.90;;;;;;4850938;29;20454;-75
2024/01/17 07:38:14;;;;;;;11.80;6.97;;;-1.00;99.90;;;;;;4867649;29;20057;-75
2024/01/17 07:40:41;;;;;;;12.90;6.80;;;-1.00;99.90;;;;;;4849457;29;20077;-76
2024/01/17 07:43:07;;;;;;;11.30;6.63;;;-1.00;99.90;;;;;;4876103;29;20037;-76
2024/01/17 07:45:33;;;;;;;10.43;6.55;;;-1.00;99.90;;;;;;4885072;29;20037;-75
2024/01/17 07:47:58;;;;;;;15.68;6.75;;;-1.00;99.90;;;;;;4891762;29;20037;-75
2024/01/17 07:50:24;;;;;;;16.52;7.05;;;-1.00;99.90;;;;;;4894591;29;20450;-77
2024/01/17 07:52:50;;;;;;;11.45;6.55;;;-1.00;99.90;;;;;;4891386;29;20478;-76
2024/01/17 07:55:16;;;;;;;12.98;6.85;;;-1.00;99.90;;;;;;4878538;29;20056;-75
2024/01/17 07:57:41;;;;;;;12.95;7.22;;;-1.00;99.90;;;;;;4878101;29;20461;-75
2024/01/17 08:00:08;;;;;;;12.88;6.88;;;-1.00;99.90;;;;;;4852549;29;20135;-76
2024/01/17 08:02:34;;;;;;;13.60;7.07;;;-0.90;99.90;;;;;;4852365;29;20045;-76
2024/01/17 08:05:00;;;;;;;11.48;6.95;;;-0.90;99.90;;;;;;4853559;29;20041;-75
2024/01/17 08:07:26;;;;;;;12.13;7.18;;;-0.90;99.90;;;;;;4852403;29;20067;-76
2024/01/17 08:09:52;;;;;;;14.00;7.25;;;-0.90;99.90;;;;;;4869925;29;20052;-76
2024/01/17 08:12:19;;;;;;;12.00;6.55;;;-0.90;99.90;;;;;;4855944;29;20041;-75
2024/01/17 08:14:45;;;;;;;15.98;6.85;;;-0.90;99.90;;;;;;4855201;29;20060;-76
2024/01/17 08:17:11;;;;;;;11.35;6.85;;;-0.90;99.90;;;;;;4870388;29;20037;-74
2024/01/17 08:19:37;;;;;;;10.40;6.87;;;-0.90;99.90;;;;;;4871160;29;20056;-75
2024/01/17 08:22:04;;;;;;;13.90;8.25;;;-0.90;99.90;;;;;;4866994;29;20286;-75
2024/01/17 08:24:30;;;;;;;12.97;6.50;;;-0.90;99.90;;;;;;4869678;29;20390;-75
2024/01/17 08:26:56;;;;;;;15.48;7.72;;;-0.90;99.90;;;;;;4864380;29;20053;-79
2024/01/17 08:29:22;;;;;;;14.48;7.07;;;-0.90;99.90;;;;;;4852177;29;20048;-79
2024/01/17 08:31:48;;;;;;;12.48;7.38;;;-0.90;99.90;;;;;;4867820;29;20082;-76
2024/01/17 08:34:14;;;;;;;12.25;6.95;;;-0.90;99.90;;;;;;4853037;29;20171;-76
2024/01/17 08:36:40;;;;;;;13.82;7.90;;;-0.90;99.90;;;;;;4850611;29;20199;-79
2024/01/17 08:39:06;;;;;;;12.85;7.45;;;-0.80;99.90;;;;;;4863749;29;20147;-79
2024/01/17 08:41:33;;;;;;;12.10;7.90;;;-0.80;99.90;;;;;;4864596;29;20049;-78
2024/01/17 08:44:00;;;;;;;15.75;8.95;;;-0.80;99.90;;;;;;4867890;29;20120;-77
2024/01/17 08:46:25;;;;;;;12.98;7.75;;;-0.80;99.90;;;;;;4869440;29;20044;-77
2024/01/17 08:48:51;;;;;;;14.52;7.78;;;-0.70;99.90;;;;;;4870792;29;20045;-78
2024/01/17 08:51:17;;;;;;;14.80;7.90;;;-0.80;99.90;;;;;;4872013;29;20075;-75
2024/01/17 08:53:43;;;;;;;13.48;8.07;;;-0.70;99.90;;;;;;4871912;29;20064;-82
2024/01/17 08:56:10;;;;;;;16.42;7.70;;;-0.70;99.90;;;;;;4869274;29;20259;-78
2024/01/17 08:58:35;;;;;;;18.30;8.32;;;-0.70;99.90;;;;;;4873303;29;20049;-78
2024/01/17 09:01:02;;;;;;;15.35;8.02;;;-0.70;99.90;;;;;;4852745;29;20053;-76
2024/01/17 09:03:29;;;;;;;15.63;8.43;;;-0.60;99.90;;;;;;4876288;29;20064;-82
2024/01/17 09:05:55;;;;;;;10.90;7.03;;;-0.60;99.90;;;;;;4838056;29;20136;-79
2024/01/17 09:08:20;;;;;;;13.35;6.85;;;-0.60;99.90;;;;;;4855107;29;20623;-80
2024/01/17 09:10:46;;;;;;;17.90;7.95;;;-0.50;99.90;;;;;;4874014;29;20056;-79
2024/01/17 09:13:13;;;;;;;12.38;7.75;;;-0.60;99.90;;;;;;4857293;29;20045;-79
2024/01/17 09:15:39;;;;;;;16.83;7.35;;;-0.50;99.90;;;;;;4870313;29;20056;-84
2024/01/17 09:18:05;;;;;;;16.95;7.70;;;-0.50;99.90;;;;;;4862553;29;20057;-81
2024/01/17 09:20:31;;;;;;;12.02;6.63;;;-0.50;99.90;;;;;;4868244;29;20168;-82
2024/01/17 09:22:57;;;;;;;12.95;7.07;;;-0.50;99.90;;;;;;4860114;29;20152;-79
2024/01/17 09:25:23;;;;;;;15.05;7.78;;;-0.50;99.90;;;;;;4868414;29;20057;-80
2024/01/17 09:27:49;;;;;;;13.73;8.07;;;-0.50;99.90;;;;;;4855340;29;20460;-80
2024/01/17 09:30:15;;;;;;;12.02;7.35;;;-0.50;99.90;;;;;;4868593;29;20132;-79
2024/01/17 09:32:41;;;;;;;14.52;7.07;;;-0.50;99.90;;;;;;4871679;29;20063;-78
2024/01/17 09:35:08;;;;;;;13.30;7.05;;;-0.40;99.90;;;;;;4857253;29;20057;-78
2024/01/17 09:37:36;;;;;;;13.38;6.78;;;-0.40;99.90;;;;;;4859260;29;20530;-79
2024/01/17 09:40:05;;;;;;;;;;;-0.40;99.90;;;;;;4852860;29;20065;-82
2024/01/17 09:42:32;;;;;;;17.45;8.05;;;-0.40;99.90;;;;;;4847902;29;19924;-84
2024/01/17 09:44:59;;;;;;;12.27;7.88;;;-0.40;99.90;;;;;;4865855;29;20538;-81
2024/01/17 09:47:26;;;;;;;14.40;7.20;;;-0.30;99.90;;;;;;4860877;29;20053;-84
2024/01/17 09:49:51;;;;;;;14.27;7.60;;;-0.30;99.90;;;;;;4850742;29;20508;-83
2024/01/17 09:52:21;;;;;;;15.15;7.93;;;-0.30;99.90;;;;;;4845119;29;20049;-79
2024/01/17 09:54:50;;;;;;;15.32;7.72;;;-0.30;99.90;;;;;;4860169;29;20136;-79
2024/01/17 09:57:22;;;;;;;15.02;8.38;;;-0.20;99.90;;;;;;4861327;29;20049;-79
2024/01/17 09:59:58;;;;;;;13.27;7.97;;;-0.20;99.90;;;;;;4859675;29;20113;-79
2024/01/17 10:02:27;;;;;;;10.20;6.75;;;-0.20;99.90;;;;;;4859340;29;20049;-79
2024/01/17 10:04:53;;;;;;;16.42;8.23;;;-0.20;99.90;;;;;;4880124;29;20079;-79
2024/01/17 10:07:19;;;;;;;15.47;8.20;;;-0.10;99.90;;;;;;4843961;29;20046;-80
2024/01/17 10:09:46;;;;;;;14.32;7.50;;;-0.10;99.90;;;;;;4851497;29;20082;-78
2024/01/17 10:12:13;;;;;;;14.70;8.35;;;-0.10;99.90;;;;;;4873712;29;20045;-80
2024/01/17 10:14:40;;;;;;;17.45;9.23;;;-0.10;99.90;;;;;;4882829;29;20266;-79
2024/01/17 10:17:06;;;;;;;13.02;7.95;;;-0.10;99.90;;;;;;4865772;29;20050;-80
2024/01/17 10:19:33;;;;;;;15.95;8.23;;;-0.10;99.90;;;;;;4852903;29;20438;-80
2024/01/17 10:22:02;;;;;;;15.98;7.80;;;0.00;99.90;;;;;;4854804;29;20053;-79
2024/01/17 10:24:32;;;;;;;12.88;7.22;;;0.00;99.90;;;;;;4861799;29;20041;-79
2024/01/17 10:27:01;;;;;;;15.38;8.85;;;0.00;99.90;;;;;;4854048;29;20062;-83
2024/01/17 10:29:27;;;;;;;18.30;8.70;;;0.00;99.90;;;;;;4855321;29;20048;-83
2024/01/17 10:31:58;;;;;;;15.68;8.40;;;0.00;99.90;;;;;;4854287;29;20052;-80
2024/01/17 10:34:27;;;;;;;17.50;8.98;;;0.00;99.90;;;;;;4857507;29;20049;-80
2024/01/17 10:36:53;;;;;;;15.73;9.52;;;0.00;99.90;;;;;;4869455;29;20042;-80
2024/01/17 10:39:20;;;;;;;14.68;8.90;;;0.10;99.90;;;;;;4856958;29;20506;-77
2024/01/17 10:41:54;;;;;;;14.07;8.67;;;0.10;99.90;;;;;;4868246;29;20052;-84
2024/01/17 10:44:25;;;;;;;16.88;8.30;;;0.20;99.90;;;;;;4847315;29;20052;-79
2024/01/17 10:46:51;;;;;;;17.65;8.90;;;0.20;99.90;;;;;;4875845;29;20057;-80
2024/01/17 10:49:18;;;;;;;14.33;8.40;;;0.20;99.90;;;;;;4862292;29;20111;-83
2024/01/17 10:52:05;;;;;;;15.40;9.23;;;0.20;99.90;;;;;;4861578;29;20692;-79
2024/01/17 10:54:36;;;;;;;;;;;0.20;99.90;;;;;;4873206;29;20057;-80
2024/01/17 10:57:06;;;;;;;16.73;8.32;;;0.20;99.90;;;;;;4856419;29;20269;-81
2024/01/17 10:59:32;;;;;;;18.88;8.82;;;0.30;99.90;;;;;;4881059;29;20081;-78
2024/01/17 11:01:58;;;;;;;14.77;8.20;;;0.30;99.90;;;;;;4864158;29;20049;-76
2024/01/17 11:04:29;;;;;;;17.00;8.88;;;0.30;99.90;;;;;;4853093;29;20302;-75
2024/01/17 11:06:57;;;;;;;16.05;8.68;;;0.30;99.90;;;;;;4862242;29;20049;-79
2024/01/17 11:09:26;;;;;;;18.70;9.02;;;0.30;99.90;;;;;;4861565;29;20044;-78
2024/01/17 11:11:52;;;;;;;17.30;9.90;;;0.30;99.90;;;;;;4874427;29;20060;-78
2024/01/17 11:14:19;;;;;;;16.98;10.20;;;0.40;99.90;;;;;;4859051;29;20037;-84
2024/01/17 11:16:48;;;;;;;21.55;11.95;;;0.40;99.90;;;;;;4865333;29;20053;-91
2024/01/17 11:19:15;;;;;;;17.30;9.02;;;0.40;99.90;;;;;;4872886;29;20045;-85
2024/01/17 11:21:42;;;;;;;17.98;10.50;;;0.50;99.90;;;;;;4871577;29;20045;-87
2024/01/17 11:24:39;;;;;;;17.57;8.37;;;0.50;99.90;;;;;;4876082;29;20048;-93
2024/01/17 11:27:22;;;;;;;17.05;9.70;;;0.50;99.90;;;;;;4847359;29;20623;-86
2024/01/17 11:29:59;;;;;;;16.38;9.60;;;0.50;99.90;;;;;;4867494;29;20048;-83
2024/01/17 11:33:00;;;;;;;13.35;8.18;;;0.50;99.90;;;;;;4862665;29;20854;-80
2024/01/17 11:35:45;;;;;;;15.18;8.65;;;0.50;99.90;;;;;;4874525;29;20047;-78
2024/01/17 11:38:34;;;;;;;14.93;8.32;;;0.60;99.90;;;;;;4866671;29;20060;-78
2024/01/17 11:41:18;;;;;;;18.88;8.95;;;0.60;99.90;;;;;;4851461;29;20105;-75
2024/01/17 11:43:43;;;;;;;13.70;7.13;;;0.60;99.90;;;;;;4867760;29;20045;-78
2024/01/17 11:46:10;;;;;;;14.18;7.10;;;0.60;99.90;;;;;;4876780;29;20399;-79
2024/01/17 11:48:38;;;;;;;13.10;7.50;;;0.50;99.90;;;;;;4853513;29;20037;-78
2024/01/17 11:51:11;;;;;;;17.38;8.60;;;0.50;99.90;;;;;;4854319;29;20137;-78
2024/01/17 11:53:37;;;;;;;14.02;7.72;;;0.50;99.90;;;;;;4853887;29;20049;-78
2024/01/17 11:56:04;;;;;;;14.38;7.93;;;0.40;99.90;;;;;;4851670;29;20057;-78
2024/01/17 11:58:40;;;;;;;;;;;0.40;99.90;;;;;;4860225;29;20053;-78
2024/01/17 12:01:07;;;;;;;16.73;7.95;;;0.40;99.90;;;;;;4854464;29;19932;-78
2024/01/17 12:03:33;;;;;;;13.07;7.95;;;0.40;99.90;;;;;;4865097;29;20304;-78
2024/01/17 12:06:00;;;;;;;17.73;7.35;;;0.40;99.90;;;;;;4851865;29;20558;-78
2024/01/17 12:08:27;;;;;;;16.75;8.38;;;0.50;99.90;;;;;;4845026;29;20057;-78
2024/01/17 12:10:56;;;;;;;14.85;8.20;;;0.50;99.90;;;;;;4854240;29;20501;-78
2024/01/17 12:13:23;;;;;;;17.98;10.93;;;0.50;99.90;;;;;;4837804;29;20069;-78
2024/01/17 12:15:53;;;;;;;16.77;9.02;;;0.50;99.90;;;;;;4865823;29;20045;-78
2024/01/17 12:18:23;;;;;;;16.17;9.93;;;0.60;99.90;;;;;;4838327;29;20152;-78
2024/01/17 12:20:49;;;;;;;14.10;7.75;;;0.60;99.90;;;;;;4857467;29;20467;-78
2024/01/17 12:23:21;;;;;;;16.95;8.10;;;0.60;99.90;;;;;;4856929;29;20608;-78
2024/01/17 12:25:48;;;;;;;13.85;8.38;;;0.60;99.90;;;;;;4855129;29;20102;-75
2024/01/17 12:28:22;;;;;;;14.18;8.60;;;0.70;99.90;;;;;;4852516;29;20054;-78
2024/01/17 12:31:06;;;;;;;14.68;8.23;;;0.70;99.90;;;;;;4860536;29;20053;-77
2024/01/17 12:33:37;;;;;;;12.52;7.43;;;0.70;99.90;;;;;;4861157;29;20045;-77
2024/01/17 12:36:05;;;;;;;20.00;8.93;;;0.70;99.90;;;;;;4867888;29;20052;-79
2024/01/17 12:38:33;;;;;;;17.75;8.20;;;0.70;99.90;;;;;;4869379;29;20176;-80